Moseley, Virginia
Current Conditions -  °F | °C
As of 1:55 AM on Friday 28 Nov 2014 (Local Time) from KFCI Reporting Station
Clear Clear  
Wind Chill: -4°   Ceiling: Unl
Heat Index: -1°   Visibility: 10mi
Dew Point: -9°   Wind: 6mph
Humidity: 55%   Direction: 300°WNW
Pressure: 30.23"   Gusts: NA
Location:  37.48°N, 77.78°W
Report Text: KFCI 280655Z AUTO 30005KT 10SM CLR M01/M09 A3023 RMK AO1
Loading
Personal Weather Stations






























Interactive Weather Map New forecast layout! Learn more

10-Day Weather Forecast

Advertisements
Track Severe Weather on mobile